Time;durP1;ratioP1;P1;durP2;ratioP2;P2;SDS_P1;SDS_P2;PMS_P1;PMS_P2;Temp;Humidity;BMP_temperature;BMP_pressure;BME280_temperature;BME280_humidity;BME280_pressure;Samples;Min_cycle;Max_cycle;Signal;HPM_P1;HPM_P2
2021/08/16 00:00:31;;;;;;;22.83;13.50;;;;;;;21.06;61.69;98522.30;125605;1093;102968;-74
2021/08/16 00:03:10;;;;;;;22.17;12.37;;;;;;;21.07;62.11;98522.08;125595;1096;102968;-75
2021/08/16 00:05:39;;;;;;;22.90;13.73;;;;;;;21.05;61.88;98526.03;125568;1096;103004;-75
2021/08/16 00:08:09;;;;;;;21.90;12.70;;;;;;;20.95;62.00;98526.35;125603;1096;103005;-74
2021/08/16 00:10:39;;;;;;;25.30;14.25;;;;;;;20.86;62.13;98530.20;125645;1094;103026;-75
2021/08/16 00:13:08;;;;;;;25.17;14.40;;;;;;;20.82;62.04;98527.02;125650;1095;103056;-75
2021/08/16 00:15:36;;;;;;;23.50;15.10;;;;;;;20.80;62.45;98521.83;125632;1096;102919;-75
2021/08/16 00:18:05;;;;;;;22.93;13.73;;;;;;;20.81;62.39;98512.69;125542;1096;102923;-75
2021/08/16 00:20:33;;;;;;;21.90;13.40;;;;;;;20.80;62.39;98518.27;125626;1095;102995;-75
2021/08/16 00:23:02;;;;;;;23.83;14.60;;;;;;;20.79;62.73;98516.59;125588;1096;103393;-73
2021/08/16 00:25:31;;;;;;;24.63;14.10;;;;;;;20.77;62.62;98524.08;125615;1096;103135;-74
2021/08/16 00:27:59;;;;;;;22.87;14.37;;;;;;;20.73;62.65;98528.16;125622;1096;103781;-73
2021/08/16 00:30:29;;;;;;;21.10;13.23;;;;;;;20.64;63.28;98516.61;125510;1097;103028;-73
2021/08/16 00:32:57;;;;;;;27.80;15.20;;;;;;;20.56;63.15;98517.57;125591;1096;102937;-74
2021/08/16 00:35:25;;;;;;;22.87;14.47;;;;;;;20.53;63.16;98523.34;125533;1096;103076;-74
2021/08/16 00:37:54;;;;;;;23.27;14.13;;;;;;;20.48;63.39;98529.33;125606;1096;103000;-74
2021/08/16 00:40:23;;;;;;;21.63;12.83;;;;;;;20.50;63.46;98524.58;125579;1096;102999;-74
2021/08/16 00:42:52;;;;;;;20.90;13.27;;;;;;;20.51;63.49;98518.16;125605;1096;103069;-75
2021/08/16 00:45:20;;;;;;;21.10;13.17;;;;;;;20.55;63.71;98515.89;125649;1096;102906;-75
2021/08/16 00:47:48;;;;;;;20.77;11.57;;;;;;;20.56;63.61;98516.75;125602;1094;103034;-74
2021/08/16 00:50:17;;;;;;;23.20;13.93;;;;;;;20.53;63.79;98523.34;125602;1096;102916;-73
2021/08/16 00:52:46;;;;;;;20.27;12.43;;;;;;;20.49;63.87;98525.61;125604;1096;103064;-73
2021/08/16 00:55:15;;;;;;;23.00;13.30;;;;;;;20.46;63.86;98523.28;125613;1096;102715;-74
2021/08/16 00:57:43;;;;;;;22.95;13.45;;;;;;;20.45;64.12;98518.91;125611;1096;102916;-75
2021/08/16 01:00:12;;;;;;;27.65;12.90;;;;;;;20.44;64.04;98513.67;125612;1096;103435;-74
2021/08/16 01:02:43;;;;;;;22.00;13.33;;;;;;;20.45;63.94;98512.65;125639;1095;103037;-74
2021/08/16 01:05:14;;;;;;;21.87;12.90;;;;;;;20.44;64.16;98511.83;125590;1097;103512;-75
2021/08/16 01:07:44;;;;;;;24.27;13.07;;;;;;;20.47;64.16;98511.45;125539;1096;103061;-73
2021/08/16 01:10:15;;;;;;;22.50;13.17;;;;;;;20.51;64.24;98503.80;125624;1096;103041;-74
2021/08/16 01:12:43;;;;;;;21.77;13.13;;;;;;;20.56;64.39;98500.54;125647;1096;102984;-74
2021/08/16 01:15:14;;;;;;;25.23;13.37;;;;;;;20.59;64.47;98500.13;125623;1096;103103;-75
2021/08/16 01:17:43;;;;;;;21.00;12.37;;;;;;;20.62;64.36;98492.50;125628;1096;103006;-75
2021/08/16 01:20:14;;;;;;;22.97;12.30;;;;;;;20.58;64.43;98490.38;125606;1096;103079;-75
2021/08/16 01:22:43;;;;;;;23.40;13.37;;;;;;;20.55;64.40;98482.66;125626;1094;103035;-75
2021/08/16 01:25:12;;;;;;;23.45;12.70;;;;;;;20.49;64.68;98466.17;125496;1097;103117;-75
2021/08/16 01:27:40;;;;;;;20.03;12.43;;;;;;;20.48;64.36;98467.20;125555;1096;102916;-74
2021/08/16 01:30:14;;;;;;;22.47;12.90;;;;;;;20.48;64.69;98471.75;125654;1095;103013;-76
2021/08/16 01:32:43;;;;;;;24.40;13.07;;;;;;;20.36;64.90;98476.81;125558;1096;103103;-76
2021/08/16 01:35:12;;;;;;;23.33;12.17;;;;;;;20.28;64.93;98475.08;125632;1095;102921;-75
2021/08/16 01:37:42;;;;;;;23.40;13.43;;;;;;;20.16;65.33;98473.88;125618;1096;103384;-75
2021/08/16 01:40:14;;;;;;;20.87;12.87;;;;;;;20.06;65.41;98477.69;125610;1096;102913;-73
2021/08/16 01:42:42;;;;;;;21.40;13.30;;;;;;;20.03;65.30;98486.16;125551;1094;102334;-73
2021/08/16 01:45:12;;;;;;;23.30;14.50;;;;;;;20.06;65.60;98468.77;125573;1096;102983;-70
2021/08/16 01:47:40;;;;;;;21.13;12.60;;;;;;;20.10;65.49;98464.67;125694;1095;102916;-74
2021/08/16 01:50:09;;;;;;;23.50;13.57;;;;;;;20.08;65.22;98459.45;125616;1096;102948;-75
2021/08/16 01:52:37;;;;;;;21.87;13.70;;;;;;;20.07;65.84;98444.27;125650;1096;103007;-74
2021/08/16 01:55:07;;;;;;;27.73;13.50;;;;;;;20.11;65.66;98452.00;125650;1096;102966;-75
2021/08/16 01:57:35;;;;;;;21.45;12.80;;;;;;;20.11;65.55;98452.00;125618;1095;102964;-75
2021/08/16 02:00:06;;;;;;;22.03;12.77;;;;;;;20.05;66.27;98451.72;125656;1095;103068;-75
2021/08/16 02:02:38;;;;;;;25.20;13.50;;;;;;;19.99;66.36;98463.27;125636;1096;103020;-74
2021/08/16 02:05:09;;;;;;;21.73;13.20;;;;;;;19.94;66.34;98471.12;125680;1095;102998;-75
2021/08/16 02:07:37;;;;;;;21.13;13.17;;;;;;;19.91;66.30;98468.79;125659;1096;103622;-76
2021/08/16 02:10:07;;;;;;;24.40;13.27;;;;;;;19.89;66.20;98466.26;125555;1095;102943;-74
2021/08/16 02:12:35;;;;;;;24.37;14.20;;;;;;;19.84;66.38;98459.73;125622;1096;102984;-75
2021/08/16 02:15:11;;;;;;;23.40;13.60;;;;;;;19.81;66.73;98447.42;125541;1095;103124;-75
2021/08/16 02:17:39;;;;;;;28.73;14.77;;;;;;;19.85;66.63;98450.61;125638;1096;103004;-75
2021/08/16 02:20:10;;;;;;;21.10;12.77;;;;;;;19.84;66.40;98468.64;125619;1096;103128;-75
2021/08/16 02:22:38;;;;;;;21.93;13.17;;;;;;;19.78;66.58;98474.78;125614;1094;103041;-74
2021/08/16 02:25:08;;;;;;;21.30;13.00;;;;;;;19.66;67.15;98474.41;125734;1095;102916;-74
2021/08/16 02:27:44;;;;;;;24.67;13.60;;;;;;;19.60;67.08;98475.14;125736;1096;103175;-75
2021/08/16 02:30:16;;;;;;;24.77;13.40;;;;;;;19.61;66.93;98469.58;125661;1096;103025;-74
2021/08/16 02:32:46;;;;;;;25.03;13.80;;;;;;;19.62;67.33;98468.56;125697;1096;103012;-75
2021/08/16 02:35:15;;;;;;;21.30;12.83;;;;;;;19.65;67.04;98467.34;125650;1097;102971;-74
2021/08/16 02:37:44;;;;;;;25.13;13.50;;;;;;;19.68;67.12;98460.75;125668;1095;103007;-74
2021/08/16 02:40:14;;;;;;;22.63;13.60;;;;;;;19.72;67.13;98454.79;125684;1096;103084;-74
2021/08/16 02:42:43;;;;;;;20.60;12.77;;;;;;;19.74;67.47;98452.74;125704;1096;102932;-76
2021/08/16 02:45:11;;;;;;;23.33;11.90;;;;;;;19.72;67.76;98454.79;125691;1096;102916;-75
2021/08/16 02:47:40;;;;;;;22.43;13.17;;;;;;;19.68;67.43;98444.56;125655;1094;103130;-76
2021/08/16 02:50:09;;;;;;;21.33;12.33;;;;;;;19.66;67.73;98441.22;125696;1096;102943;-75
2021/08/16 02:52:38;;;;;;;21.57;12.23;;;;;;;19.65;68.03;98429.57;125662;1096;102934;-74
2021/08/16 02:55:08;;;;;;;24.47;12.90;;;;;;;19.61;67.44;98433.66;125699;1096;103012;-74
2021/08/16 02:57:37;;;;;;;23.70;12.40;;;;;;;19.60;67.79;98432.84;125706;1096;103505;-76
2021/08/16 03:00:07;;;;;;;24.40;13.13;;;;;;;19.57;67.89;98419.72;125698;1096;103096;-75
2021/08/16 03:02:37;;;;;;;20.50;12.23;;;;;;;19.58;68.47;98416.00;125664;1096;102911;-76
2021/08/16 03:05:06;;;;;;;21.13;12.83;;;;;;;19.57;68.42;98417.02;125690;1093;103367;-76
2021/08/16 03:07:34;;;;;;;22.40;11.63;;;;;;;19.56;68.32;98411.83;125669;1093;103054;-75
2021/08/16 03:10:09;;;;;;;22.80;13.13;;;;;;;19.55;68.43;98412.85;125690;1096;103160;-74
2021/08/16 03:12:38;;;;;;;24.50;13.27;;;;;;;19.53;68.18;98409.50;125649;1093;102941;-75
2021/08/16 03:15:08;;;;;;;26.00;13.87;;;;;;;19.54;68.49;98406.60;125736;1092;102998;-75
2021/08/16 03:17:37;;;;;;;20.80;11.50;;;;;;;19.57;68.56;98413.47;125726;1096;102926;-75
2021/08/16 03:20:07;;;;;;;22.43;12.73;;;;;;;19.63;68.63;98410.03;125716;1093;103068;-74
2021/08/16 03:22:36;;;;;;;19.77;11.50;;;;;;;19.69;68.90;98414.69;125718;1093;103111;-76
2021/08/16 03:25:06;;;;;;;20.60;11.67;;;;;;;19.78;68.50;98415.42;125671;1093;103004;-76
2021/08/16 03:27:35;;;;;;;21.73;12.40;;;;;;;19.87;68.57;98417.00;125702;1097;102898;-76
2021/08/16 03:30:07;;;;;;;21.13;12.10;;;;;;;19.93;68.66;98408.19;125631;1096;102992;-76
2021/08/16 03:32:36;;;;;;;23.43;12.03;;;;;;;19.99;68.76;98411.16;125691;1096;102996;-76
2021/08/16 03:35:06;;;;;;;22.80;11.10;;;;;;;20.05;68.57;98405.02;125680;1093;103012;-75
2021/08/16 03:37:35;;;;;;;18.73;10.50;;;;;;;20.11;68.43;98395.31;125726;1093;103051;-76
2021/08/16 03:40:06;;;;;;;20.87;11.50;;;;;;;20.18;68.68;98399.75;125689;1093;103018;-76
2021/08/16 03:42:37;;;;;;;21.23;10.90;;;;;;;20.23;68.68;98386.52;125697;1093;103367;-75
2021/08/16 03:45:18;;;;;;;19.23;10.90;;;;;;;20.27;68.67;98376.19;125707;1092;102938;-76
2021/08/16 03:47:48;;;;;;;20.30;11.13;;;;;;;20.33;68.75;98386.23;125662;1093;102991;-76
2021/08/16 03:50:18;;;;;;;20.20;11.20;;;;;;;20.36;68.63;98372.34;125628;1093;103023;-75
2021/08/16 03:52:46;;;;;;;18.63;10.70;;;;;;;20.40;68.74;98370.08;125675;1093;103008;-76
2021/08/16 03:55:15;;;;;;;21.37;11.00;;;;;;;20.40;68.67;98361.13;125692;1093;102936;-75
2021/08/16 03:57:43;;;;;;;19.13;10.67;;;;;;;20.43;68.88;98363.45;125682;1093;103508;-75
2021/08/16 04:00:14;;;;;;;20.10;10.17;;;;;;;20.47;68.85;98365.59;125646;1093;103070;-74
2021/08/16 04:02:45;;;;;;;18.97;9.53;;;;;;;20.52;68.78;98365.00;125643;1093;103121;-74
2021/08/16 04:05:14;;;;;;;17.93;9.10;;;;;;;20.57;68.97;98364.44;125695;1093;103031;-76
2021/08/16 04:07:44;;;;;;;19.80;9.10;;;;;;;20.63;68.91;98360.93;125647;1093;102942;-75
2021/08/16 04:10:15;;;;;;;21.27;9.77;;;;;;;20.68;68.73;98361.19;125678;1094;103021;-75
2021/08/16 04:12:45;;;;;;;22.13;8.37;;;;;;;20.72;68.66;98364.36;125650;1093;102924;-74
2021/08/16 04:15:17;;;;;;;20.63;8.60;;;;;;;20.74;68.74;98368.52;125649;1093;103348;-76
2021/08/16 04:17:46;;;;;;;18.15;8.38;;;;;;;20.76;68.78;98365.64;125681;1093;102907;-74
2021/08/16 04:20:18;;;;;;;19.57;8.10;;;;;;;20.77;68.62;98368.16;125643;1094;102916;-74
2021/08/16 04:22:48;;;;;;;16.17;7.57;;;;;;;20.80;68.50;98367.78;125706;1093;102916;-74
2021/08/16 04:25:18;;;;;;;14.60;7.30;;;;;;;20.83;68.76;98369.24;125663;1093;103073;-75
2021/08/16 04:27:49;;;;;;;18.47;7.03;;;;;;;20.86;68.35;98373.44;125626;1095;103044;-75
2021/08/16 04:30:19;;;;;;;15.67;7.50;;;;;;;20.89;68.44;98375.75;125650;1092;103010;-76
2021/08/16 04:32:48;;;;;;;15.30;7.23;;;;;;;20.94;68.50;98371.42;125653;1093;103090;-74
2021/08/16 04:35:16;;;;;;;16.33;6.73;;;;;;;20.99;68.45;98378.92;125648;1093;103158;-72
2021/08/16 04:37:45;;;;;;;13.40;6.60;;;;;;;21.04;68.39;98370.25;125625;1093;103263;-81
2021/08/16 04:40:15;;;;;;;21.40;6.27;;;;;;;21.12;68.32;98370.92;125697;1091;103016;-85
2021/08/16 04:42:43;;;;;;;12.23;5.53;;;;;;;21.19;68.30;98360.17;125739;1096;103031;-87
2021/08/16 04:45:14;;;;;;;11.57;5.60;;;;;;;21.29;68.23;98367.92;125743;1096;102932;-87
2021/08/16 04:47:46;;;;;;;10.67;4.83;;;;;;;21.37;68.12;98369.63;125791;1095;102978;-89
2021/08/16 04:50:17;;;;;;;15.17;5.17;;;;;;;21.46;68.07;98370.30;125733;1095;103030;-81
2021/08/16 04:52:47;;;;;;;12.57;5.47;;;;;;;21.54;67.95;98375.55;125735;1093;103142;-75
2021/08/16 04:55:16;;;;;;;11.67;4.80;;;;;;;21.61;67.77;98370.16;125649;1093;103064;-83
2021/08/16 04:57:46;;;;;;;13.27;5.50;;;;;;;21.64;67.81;98369.80;125779;1093;102942;-84
2021/08/16 05:00:19;;;;;;;14.97;4.77;;;;;;;21.67;67.38;98370.25;125737;1095;103023;-83
2021/08/16 05:02:49;;;;;;;12.00;5.00;;;;;;;21.73;67.42;98379.42;125702;1095;103051;-85
2021/08/16 05:05:19;;;;;;;7.33;4.27;;;;;;;21.77;67.36;98382.58;125713;1096;102929;-83
2021/08/16 05:07:56;;;;;;;12.53;4.90;;;;;;;21.82;67.20;98380.08;125706;1093;103473;-82
2021/08/16 05:10:30;;;;;;;8.75;4.35;;;;;;;21.86;66.94;98382.20;125707;1096;103160;-82
2021/08/16 05:13:01;;;;;;;11.30;4.50;;;;;;;21.89;66.89;98367.41;125716;1096;103001;-83
2021/08/16 05:15:30;;;;;;;9.83;4.40;;;;;;;21.87;66.65;98372.19;125714;1094;103001;-80
2021/08/16 05:18:00;;;;;;;11.03;5.10;;;;;;;21.87;66.50;98361.36;125648;1096;103050;-83
2021/08/16 05:20:32;;;;;;;13.73;4.30;;;;;;;21.88;66.54;98365.74;125687;1096;103163;-80
2021/08/16 05:23:05;;;;;;;15.33;4.77;;;;;;;21.90;66.42;98363.67;125637;1093;103054;-84
2021/08/16 05:25:34;;;;;;;11.10;5.23;;;;;;;21.91;66.12;98354.52;125758;1095;103636;-85
2021/08/16 05:28:04;;;;;;;8.27;4.20;;;;;;;21.94;66.05;98350.58;125728;1093;103031;-86
2021/08/16 05:30:33;;;;;;;10.23;4.30;;;;;;;21.96;66.02;98349.33;125676;1093;102938;-84
2021/08/16 05:33:03;;;;;;;11.27;4.57;;;;;;;21.99;65.90;98351.63;125725;1092;103017;-80
2021/08/16 05:35:31;;;;;;;10.43;4.70;;;;;;;21.99;65.83;98351.63;125709;1091;103087;-82
2021/08/16 05:38:00;;;;;;;9.37;4.67;;;;;;;22.00;65.83;98345.17;125723;1093;102934;-83
2021/08/16 05:40:28;;;;;;;11.60;4.30;;;;;;;22.03;65.84;98340.39;125697;1093;103090;-82
2021/08/16 05:42:58;;;;;;;11.40;4.93;;;;;;;22.02;65.83;98342.25;125685;1094;103062;-82
2021/08/16 05:45:27;;;;;;;9.67;4.67;;;;;;;22.00;65.09;98338.95;125736;1093;102939;-73
2021/08/16 05:47:56;;;;;;;9.23;4.47;;;;;;;21.96;65.39;98352.03;125624;1093;102913;-76
2021/08/16 05:50:25;;;;;;;9.23;4.60;;;;;;;21.91;65.34;98337.45;125692;1093;103521;-79
2021/08/16 05:52:55;;;;;;;9.37;4.40;;;;;;;21.89;65.16;98339.52;125620;1094;103184;-77
2021/08/16 05:55:23;;;;;;;11.73;4.30;;;;;;;21.85;64.96;98337.22;125636;1093;103091;-78
2021/08/16 05:57:52;;;;;;;6.87;3.90;;;;;;;21.84;64.97;98332.84;125699;1093;102938;-74
2021/08/16 06:00:22;;;;;;;10.27;4.50;;;;;;;21.83;65.00;98338.44;125642;1091;102910;-74
2021/08/16 06:02:51;;;;;;;8.73;4.00;;;;;;;21.81;64.98;98338.66;125679;1093;102911;-75
2021/08/16 06:05:20;;;;;;;8.17;4.40;;;;;;;21.78;64.75;98349.06;125687;1093;102983;-74
2021/08/16 06:07:48;;;;;;;6.50;3.60;;;;;;;21.69;64.68;98338.41;125647;1093;103006;-76
2021/08/16 06:10:18;;;;;;;10.67;4.23;;;;;;;21.62;64.71;98353.78;125698;1093;102905;-76
2021/08/16 06:12:46;;;;;;;9.53;4.17;;;;;;;21.58;64.80;98362.48;125659;1093;102945;-75
2021/08/16 06:15:15;;;;;;;6.83;3.30;;;;;;;21.54;64.47;98356.61;125732;1092;102997;-76
2021/08/16 06:17:43;;;;;;;7.47;4.03;;;;;;;21.55;64.66;98356.43;125721;1093;102984;-79
2021/08/16 06:20:13;;;;;;;6.67;3.40;;;;;;;21.60;64.57;98361.23;125671;1093;103020;-76
2021/08/16 06:22:41;;;;;;;10.67;4.03;;;;;;;21.67;64.74;98361.28;125725;1093;102910;-74
2021/08/16 06:25:10;;;;;;;7.97;3.77;;;;;;;21.73;64.47;98367.78;125628;1093;103415;-71
2021/08/16 06:27:38;;;;;;;10.80;4.00;;;;;;;21.79;64.23;98370.50;125694;1093;103064;-72
2021/08/16 06:30:10;;;;;;;8.85;3.60;;;;;;;21.84;64.43;98368.03;125708;1093;102933;-69
2021/08/16 06:32:40;;;;;;;9.13;3.93;;;;;;;21.90;64.45;98370.97;125682;1093;103374;-68
2021/08/16 06:35:13;;;;;;;7.90;4.30;;;;;;;21.99;64.26;98388.72;125706;1091;103010;-71
2021/08/16 06:37:43;;;;;;;10.00;3.67;;;;;;;22.04;64.41;98382.69;125669;1093;102945;-70
2021/08/16 06:40:14;;;;;;;8.60;3.80;;;;;;;22.09;64.56;98375.61;125679;1093;103026;-74
2021/08/16 06:42:42;;;;;;;9.03;3.60;;;;;;;22.16;64.22;98381.88;125685;1093;102980;-78
2021/08/16 06:45:12;;;;;;;8.03;3.93;;;;;;;22.24;64.38;98382.74;125680;1093;103025;-76
2021/08/16 06:47:40;;;;;;;9.07;3.60;;;;;;;22.30;64.38;98371.91;125720;1093;102939;-78
2021/08/16 06:50:11;;;;;;;5.17;3.27;;;;;;;22.38;64.12;98370.06;125665;1093;103039;-78
2021/08/16 06:52:40;;;;;;;7.67;3.83;;;;;;;22.45;63.90;98368.23;125671;1093;103023;-75
2021/08/16 06:55:08;;;;;;;7.87;3.70;;;;;;;22.51;63.89;98366.56;125700;1093;103034;-75
2021/08/16 06:57:38;;;;;;;5.20;3.20;;;;;;;22.54;64.13;98366.16;125694;1093;103188;-79
2021/08/16 07:00:09;;;;;;;7.53;3.53;;;;;;;22.57;63.74;98369.30;125699;1093;103396;-77
2021/08/16 07:02:39;;;;;;;8.93;3.70;;;;;;;22.61;63.79;98383.26;125678;1093;103027;-76
2021/08/16 07:05:10;;;;;;;8.47;3.70;;;;;;;22.66;64.23;98378.06;125714;1093;102998;-78
2021/08/16 07:07:39;;;;;;;7.25;3.50;;;;;;;22.71;63.83;98375.56;125708;1093;102913;-76
2021/08/16 07:10:09;;;;;;;8.77;3.83;;;;;;;22.80;63.84;98376.19;125661;1091;102919;-77
2021/08/16 07:12:37;;;;;;;7.00;3.57;;;;;;;22.95;63.50;98384.11;125735;1093;102940;-78
2021/08/16 07:15:06;;;;;;;9.70;3.93;;;;;;;23.63;63.38;98374.87;125683;1093;102933;-77
2021/08/16 07:17:34;;;;;;;7.60;3.77;;;;;;;25.29;62.07;98361.47;125692;1093;102914;-76
2021/08/16 07:20:04;;;;;;;13.20;4.60;;;;;;;26.83;61.78;98360.59;125713;1093;102943;-79
2021/08/16 07:22:34;;;;;;;8.73;3.63;;;;;;;28.29;61.62;98358.03;125669;1093;103063;-80
2021/08/16 07:25:05;;;;;;;11.77;4.33;;;;;;;29.54;61.39;98356.23;125695;1093;102911;-81
2021/08/16 07:27:34;;;;;;;9.00;3.67;;;;;;;30.64;60.07;98358.31;125731;1093;103368;-76
2021/08/16 07:30:03;;;;;;;10.77;4.67;;;;;;;31.31;60.03;98367.07;125728;1093;103090;-82
2021/08/16 07:32:32;;;;;;;10.63;5.47;;;;;;;32.09;60.31;98365.54;125689;1092;103428;-81
2021/08/16 07:35:00;;;;;;;10.05;3.90;;;;;;;33.09;60.32;98368.16;125664;1093;103057;-82
2021/08/16 07:37:29;;;;;;;7.13;3.50;;;;;;;33.95;59.90;98367.42;125716;1093;103066;-81
2021/08/16 07:39:58;;;;;;;14.67;4.30;;;;;;;34.78;59.47;98372.44;125659;1093;102939;-78
2021/08/16 07:42:28;;;;;;;8.13;3.47;;;;;;;35.37;59.24;98389.04;125679;1096;102918;-78
2021/08/16 07:44:57;;;;;;;6.93;3.50;;;;;;;35.95;58.64;98395.61;125654;1096;102916;-78
2021/08/16 07:47:26;;;;;;;11.85;3.20;;;;;;;36.48;58.20;98402.97;125666;1096;103047;-80
2021/08/16 07:49:54;;;;;;;10.60;3.80;;;;;;;36.78;57.73;98414.69;125683;1096;103113;-81
2021/08/16 07:52:23;;;;;;;10.23;3.60;;;;;;;36.98;58.02;98408.02;125706;1096;102937;-78
2021/08/16 07:54:56;;;;;;;12.27;3.87;;;;;;;37.08;56.96;98409.81;125687;1096;103068;-75
2021/08/16 07:57:24;;;;;;;11.07;3.60;;;;;;;36.90;56.44;98415.05;125682;1096;103084;-76
2021/08/16 07:59:53;;;;;;;12.67;3.77;;;;;;;36.57;55.54;98425.27;125659;1093;103065;-80
2021/08/16 08:02:24;;;;;;;10.40;3.53;;;;;;;35.51;55.78;98434.27;125688;1094;103044;-81
2021/08/16 08:04:53;;;;;;;9.53;2.90;;;;;;;34.36;55.38;98436.19;126011;1093;102920;-80
2021/08/16 08:07:21;;;;;;;217.27;35.90;;;;;;;33.44;54.48;98451.06;125603;1092;102987;-81
2021/08/16 08:09:50;;;;;;;14.73;4.50;;;;;;;32.67;53.61;98455.39;125680;1094;103012;-82
2021/08/16 08:12:18;;;;;;;5.60;3.13;;;;;;;32.12;53.50;98475.02;125668;1093;103089;-80
2021/08/16 08:14:46;;;;;;;8.43;3.30;;;;;;;31.57;53.29;98488.97;125815;1092;102983;-83
2021/08/16 08:17:16;;;;;;;15.25;4.30;;;;;;;31.07;52.92;98491.02;125805;1093;102991;-86
2021/08/16 08:19:45;;;;;;;14.10;4.43;;;;;;;31.27;52.34;98490.40;125892;1093;102919;-82
2021/08/16 08:22:13;;;;;;;11.77;4.40;;;;;;;31.36;51.97;98489.92;125805;1094;102994;-84
2021/08/16 08:24:42;;;;;;;13.47;6.27;;;;;;;31.24;51.61;98498.31;125673;1093;103067;-83
2021/08/16 08:27:12;;;;;;;14.10;5.70;;;;;;;31.38;51.36;98505.04;125668;1093;102916;-80
2021/08/16 08:29:43;;;;;;;29.68;4.90;;;;;;;30.90;51.31;98518.59;125773;1093;102931;-85
2021/08/16 08:32:13;;;;;;;12.20;4.37;;;;;;;30.32;51.41;98516.25;125677;1092;103338;-74
2021/08/16 08:34:41;;;;;;;8.77;4.03;;;;;;;29.76;51.04;98508.05;125621;1095;102922;-71
2021/08/16 08:37:13;;;;;;;13.47;3.77;;;;;;;29.32;51.21;98508.72;125610;1093;102917;-72
2021/08/16 08:39:46;;;;;;;11.67;4.40;;;;;;;28.90;50.46;98512.64;125704;1093;103089;-76
2021/08/16 08:42:16;;;;;;;18.57;4.80;;;;;;;28.41;50.22;98491.98;125661;1092;103001;-74
2021/08/16 08:44:45;;;;;;;59.50;9.10;;;;;;;27.91;50.46;98485.17;125708;1092;103189;-73
2021/08/16 08:47:14;;;;;;;41.23;11.70;;;;;;;27.56;50.53;98466.91;125663;1092;102960;-77
2021/08/16 08:49:42;;;;;;;24.50;7.53;;;;;;;27.28;50.56;98455.58;125687;1093;102939;-75
2021/08/16 08:52:10;;;;;;;20.33;5.53;;;;;;;27.13;50.75;98450.58;125631;1093;102936;-75
2021/08/16 08:54:40;;;;;;;10.93;4.20;;;;;;;26.99;50.50;98449.96;125676;1093;102911;-76
2021/08/16 08:57:31;;;;;;;11.13;4.57;;;;;;;26.80;50.47;98454.63;125662;1093;103380;-76
2021/08/16 09:00:00;;;;;;;18.20;4.58;;;;;;;26.99;50.20;98455.42;125639;1093;103015;-77
2021/08/16 09:02:29;;;;;;;20.17;6.07;;;;;;;27.00;50.17;98461.70;125621;1093;102910;-73
2021/08/16 09:05:03;;;;;;;24.03;6.23;;;;;;;26.99;50.20;98451.84;125631;1093;102941;-72
2021/08/16 09:07:41;;;;;;;20.83;5.63;;;;;;;27.61;50.12;98450.64;125624;1093;102985;-74
2021/08/16 09:10:13;;;;;;;7.57;4.10;;;;;;;27.82;50.52;98448.34;126771;1093;101782;-74
2021/08/16 09:12:45;;;;;;;8.13;3.85;;;;;;;28.08;50.25;98453.30;125519;1092;102919;-75
2021/08/16 09:15:20;;;;;;;7.10;3.80;;;;;;;28.40;50.43;98454.77;125564;1093;102929;-76
2021/08/16 09:17:52;;;;;;;8.27;3.73;;;;;;;29.02;49.74;98453.19;125285;1091;103013;-76
2021/08/16 09:20:33;;;;;;;11.53;4.17;;;;;;;29.50;50.21;98450.14;125715;1093;103032;-73
2021/08/16 09:23:05;;;;;;;8.03;4.10;;;;;;;30.42;50.14;98461.52;125676;1093;102942;-75
2021/08/16 09:25:39;;;;;;;5.27;3.63;;;;;;;30.27;50.15;98456.69;125642;1093;102913;-74
2021/08/16 09:28:08;;;;;;;9.03;4.40;;;;;;;30.72;49.85;98445.67;125642;1093;103164;-73
2021/08/16 09:30:40;;;;;;;9.37;4.03;;;;;;;31.08;49.82;98454.23;125689;1096;102916;-72
2021/08/16 09:33:17;;;;;;;10.00;4.10;;;;;;;31.30;49.48;98456.06;125682;1093;102932;-75
2021/08/16 09:35:56;;;;;;;9.37;4.10;;;;;;;31.70;49.20;98453.88;125664;1093;103012;-70
2021/08/16 09:38:51;;;;;;;11.83;4.37;;;;;;;31.93;48.94;98449.91;125664;1092;102970;-69
2021/08/16 09:41:26;;;;;;;7.43;3.90;;;;;;;32.34;48.92;98452.02;125614;1093;103135;-72
2021/08/16 09:44:09;;;;;;;10.70;4.20;;;;;;;32.63;48.86;98444.11;125670;1093;102929;-71
2021/08/16 09:46:41;;;;;;;9.03;3.70;;;;;;;32.84;48.74;98441.41;125635;1093;103492;-71
2021/08/16 09:49:10;;;;;;;7.73;3.60;;;;;;;33.14;48.21;98434.27;125667;1093;102914;-70
2021/08/16 09:51:39;;;;;;;7.00;3.93;;;;;;;33.34;47.92;98418.81;125647;1093;103100;-72
2021/08/16 09:54:13;;;;;;;7.07;3.63;;;;;;;33.46;47.30;98416.63;125657;1093;103041;-70
2021/08/16 09:56:45;;;;;;;8.93;3.80;;;;;;;33.51;47.09;98424.89;125631;1093;102994;-70
2021/08/16 09:59:14;;;;;;;10.20;3.90;;;;;;;33.26;47.18;98418.27;125634;1092;103067;-72
2021/08/16 10:01:42;;;;;;;5.83;3.70;;;;;;;32.65;46.84;98413.55;125646;1093;103012;-71
2021/08/16 10:04:14;;;;;;;7.43;3.90;;;;;;;32.23;46.56;98410.67;125679;1093;102913;-69
2021/08/16 10:06:45;;;;;;;8.07;4.17;;;;;;;31.89;46.94;98413.04;125613;1093;103066;-68
2021/08/16 10:09:17;;;;;;;7.73;3.80;;;;;;;31.76;46.59;98422.61;125625;1096;102834;-70
2021/08/16 10:11:46;;;;;;;8.47;4.10;;;;;;;31.62;46.58;98406.55;125715;1093;102978;-70
2021/08/16 10:14:16;;;;;;;6.63;3.63;;;;;;;31.48;46.48;98413.60;125602;1094;103393;-70
2021/08/16 10:16:51;;;;;;;7.67;3.97;;;;;;;31.31;46.56;98403.63;125642;1093;103062;-70
2021/08/16 10:19:27;;;;;;;6.23;3.40;;;;;;;31.22;46.25;98401.61;125621;1094;102817;-68
2021/08/16 10:22:02;;;;;;;6.90;3.70;;;;;;;31.06;46.38;98392.41;125705;1093;102998;-71
2021/08/16 10:24:30;;;;;;;9.37;4.07;;;;;;;30.94;45.95;98396.19;127112;1096;102996;-72
2021/08/16 10:27:07;;;;;;;9.03;4.30;;;;;;;30.83;46.08;98395.25;125697;1092;103411;-68
2021/08/16 10:29:39;;;;;;;11.10;3.90;;;;;;;30.72;46.07;98390.78;125630;1094;102920;-71
2021/08/16 10:32:21;;;;;;;9.60;4.20;;;;;;;30.63;45.93;98379.42;125604;1096;102983;-75
2021/08/16 10:34:52;;;;;;;10.77;4.47;;;;;;;30.53;45.73;98382.88;125665;1096;103005;-69
2021/08/16 10:37:21;;;;;;;8.17;4.10;;;;;;;30.41;45.93;98380.30;125695;1096;103029;-74
2021/08/16 10:39:50;;;;;;;10.30;4.40;;;;;;;30.35;45.43;98370.36;125667;1093;103124;-72
2021/08/16 10:42:33;;;;;;;6.88;4.18;;;;;;;30.26;45.27;98371.90;125675;1093;102915;-72
2021/08/16 10:45:04;;;;;;;;;;;;;;;30.15;45.46;98379.20;125579;1093;103078;-70
2021/08/16 10:47:36;;;;;;;9.63;4.27;;;;;;;30.04;45.04;98369.19;125651;1093;102913;-71
2021/08/16 10:50:14;;;;;;;10.85;4.55;;;;;;;29.99;45.78;98376.27;125653;1092;103008;-70
2021/08/16 10:52:43;;;;;;;11.43;4.67;;;;;;;29.98;45.68;98363.64;125685;1093;102916;-69
2021/08/16 10:55:17;;;;;;;8.63;4.90;;;;;;;30.05;45.49;98365.36;125598;1094;103384;-70
2021/08/16 10:57:45;;;;;;;;;;;;;;;30.06;45.56;98367.02;125600;1092;103008;-70
2021/08/16 11:00:14;;;;;;;10.30;5.57;;;;;;;29.99;45.25;98369.97;125553;1093;103435;-69
2021/08/16 11:02:43;;;;;;;11.57;4.70;;;;;;;30.01;45.03;98362.32;125572;1092;103038;-68
2021/08/16 11:05:14;;;;;;;9.47;4.57;;;;;;;30.03;45.51;98362.89;125648;1093;102948;-69
2021/08/16 11:07:44;;;;;;;10.73;4.60;;;;;;;30.00;45.36;98366.14;125634;1093;103030;-68
2021/08/16 11:10:12;;;;;;;13.27;4.37;;;;;;;29.95;45.08;98369.64;125544;1093;102920;-68
2021/08/16 11:12:43;;;;;;;11.43;4.73;;;;;;;29.90;44.97;98361.34;125646;1093;102884;-68
2021/08/16 11:15:17;;;;;;;;;;;;;;;29.95;44.99;98361.41;125691;1092;103071;-70
2021/08/16 11:17:47;;;;;;;9.45;4.55;;;;;;;29.98;44.73;98355.42;125614;1092;102919;-70
2021/08/16 11:20:22;;;;;;;13.15;5.10;;;;;;;29.99;44.51;98359.00;125644;1093;102941;-69
2021/08/16 11:22:54;;;;;;;9.00;4.58;;;;;;;29.98;44.88;98357.34;125671;1093;102916;-73